Puerto Vallarta, JAL, Mexico
Current Conditions -  °F | °C
As of 4:45 AM on Tuesday 21 Oct 2014 (Local Time) from MMPR Reporting Station
Broken Clouds Broken Clouds  
Wind Chill: 77°   Ceiling: 12000
Heat Index: 78°   Visibility: 12mi
Dew Point: 73°   Wind: 5mph
Humidity: 89%   Direction: 40°NE
Pressure: 29.73"   Gusts: NA
Location:  20.62°N, 105.23°W
Report Text: MMPR 210945Z 04004KT 12SM SCT070 BKN120 25/23 A2973 RMK 8/070
Loading
Personal Weather Stations






























Interactive Weather Map
Tropical Storm Tracking
New forecast layout! Learn more

10-Day Weather Forecast

Advertisements
Track Severe Weather on mobile